Time;durP1;ratioP1;P1;durP2;ratioP2;P2;SDS_P1;SDS_P2;PMS_P1;PMS_P2;Temp;Humidity;BMP_temperature;BMP_pressure;BME280_temperature;BME280_humidity;BME280_pressure;Samples;Min_cycle;Max_cycle;Signal;HPM_P1;HPM_P2
2023/12/20 00:00:41;;;;;;;3.80;2.30;;;;;;;5.76;100.00;98009.72;2584213;28;20061;-88
2023/12/20 00:01:57;;;;;;;2.83;2.08;;;;;;;5.63;100.00;98007.31;2599577;28;20036;-88
2023/12/20 00:03:13;;;;;;;4.10;2.28;;;;;;;5.70;100.00;98015.84;2595524;28;20112;-88
2023/12/20 00:04:29;;;;;;;3.00;1.80;;;;;;;5.65;100.00;98013.31;2591232;28;20401;-88
2023/12/20 00:05:45;;;;;;;3.47;2.20;;;;;;;5.63;100.00;98016.84;2588078;28;20029;-88
2023/12/20 00:07:01;;;;;;;6.38;2.80;;;;;;;5.59;100.00;98018.63;2587573;28;20493;-89
2023/12/20 00:08:18;;;;;;;7.03;3.00;;;;;;;5.56;100.00;98016.09;2597478;28;20040;-89
2023/12/20 00:09:33;;;;;;;4.47;2.97;;;;;;;5.70;100.00;98015.03;2594968;28;20052;-88
2023/12/20 00:10:49;;;;;;;2.72;1.60;;;;;;;5.80;100.00;98014.00;2598542;28;20083;-88
2023/12/20 00:12:05;;;;;;;2.28;1.52;;;;;;;5.75;100.00;98006.28;2593284;28;20513;-88
2023/12/20 00:13:21;;;;;;;4.75;2.38;;;;;;;5.71;100.00;98012.38;2586976;28;20041;-88
2023/12/20 00:14:37;;;;;;;2.17;1.65;;;;;;;5.64;100.00;98010.78;2586728;28;20449;-88
2023/12/20 00:15:53;;;;;;;3.92;2.35;;;;;;;5.78;100.00;98010.53;2587627;28;20081;-88
2023/12/20 00:17:09;;;;;;;2.45;2.10;;;;;;;5.59;100.00;97997.84;2597399;28;20041;-88
2023/12/20 00:18:25;;;;;;;3.97;2.05;;;;;;;5.66;100.00;98001.22;2593083;28;20042;-89
2023/12/20 00:19:41;;;;;;;3.58;2.30;;;;;;;5.64;100.00;98000.38;2590825;28;20119;-88
2023/12/20 00:20:57;;;;;;;3.35;2.13;;;;;;;5.69;100.00;98008.94;2582386;28;20042;-89
2023/12/20 00:22:13;;;;;;;6.63;3.72;;;;;;;5.43;100.00;98020.56;2592281;28;20037;-88
2023/12/20 00:23:29;;;;;;;4.20;2.67;;;;;;;5.53;100.00;98010.06;2594184;28;20033;-88
2023/12/20 00:24:45;;;;;;;4.00;2.17;;;;;;;5.48;100.00;98015.31;2598173;28;20377;-89
2023/12/20 00:26:02;;;;;;;3.88;2.58;;;;;;;5.56;100.00;98021.28;2593654;28;20104;-88
2023/12/20 00:27:18;;;;;;;3.85;3.10;;;;;;;5.49;100.00;98009.25;2597693;28;20048;-88
2023/12/20 00:28:34;;;;;;;3.72;2.42;;;;;;;5.43;100.00;98010.19;2595123;28;20057;-89
2023/12/20 00:29:50;;;;;;;3.15;2.35;;;;;;;5.46;100.00;98010.16;2597958;28;20978;-88
2023/12/20 00:31:06;;;;;;;5.60;3.67;;;;;;;5.32;100.00;97999.13;2593313;28;20197;-89
2023/12/20 00:32:22;;;;;;;3.53;2.58;;;;;;;5.60;100.00;98006.50;2598326;28;20037;-89
2023/12/20 00:33:39;;;;;;;4.30;2.60;;;;;;;5.66;100.00;98009.00;2582703;28;20042;-89
2023/12/20 00:34:55;;;;;;;5.03;3.47;;;;;;;5.55;100.00;98016.97;2585634;28;20092;-89
2023/12/20 00:36:11;;;;;;;4.40;2.53;;;;;;;5.60;100.00;98011.72;2596236;28;20586;-88
2023/12/20 00:37:27;;;;;;;3.38;2.33;;;;;;;5.63;100.00;97993.47;2594645;28;20041;-88
2023/12/20 00:38:43;;;;;;;3.88;2.70;;;;;;;5.55;100.00;97988.41;2599153;28;20389;-90
2023/12/20 00:39:59;;;;;;;10.43;3.50;;;;;;;5.70;100.00;97986.44;2602911;28;20496;-88
2023/12/20 00:41:15;;;;;;;6.30;3.22;;;;;;;5.73;100.00;97984.66;2594156;28;20050;-89
2023/12/20 00:42:32;;;;;;;4.82;2.92;;;;;;;5.66;100.00;97983.03;2597898;28;20029;-88
2023/12/20 00:43:48;;;;;;;5.28;3.85;;;;;;;5.31;100.00;97974.88;2605070;28;20033;-88
2023/12/20 00:45:05;;;;;;;4.05;3.30;;;;;;;5.53;100.00;97978.91;2602978;28;20542;-88
2023/12/20 00:46:21;;;;;;;3.67;2.63;;;;;;;5.41;100.00;97970.41;2603655;28;20037;-89
2023/12/20 00:47:37;;;;;;;2.38;1.92;;;;;;;5.49;100.00;97968.56;2591786;28;20544;-89
2023/12/20 00:48:53;;;;;;;3.47;2.58;;;;;;;5.77;100.00;97969.88;2599403;28;20080;-89
2023/12/20 00:50:09;;;;;;;4.50;2.70;;;;;;;5.41;100.00;97973.00;2584070;28;20814;-88
2023/12/20 00:51:25;;;;;;;3.78;2.60;;;;;;;5.39;100.00;97963.56;2586994;28;20037;-89
2023/12/20 00:52:41;;;;;;;3.63;2.53;;;;;;;5.39;100.00;97961.78;2597322;28;20084;-88
2023/12/20 00:53:57;;;;;;;3.50;2.15;;;;;;;5.52;100.00;97962.50;2593749;28;20038;-89
2023/12/20 00:55:13;;;;;;;4.50;2.88;;;;;;;5.44;100.00;97969.53;2596750;28;20484;-90
2023/12/20 00:56:29;;;;;;;3.58;2.65;;;;;;;5.51;100.00;97964.22;2593040;28;20084;-88
2023/12/20 00:57:45;;;;;;;5.68;3.58;;;;;;;5.37;100.00;97951.41;2598902;28;20037;-89
2023/12/20 00:59:01;;;;;;;6.07;3.45;;;;;;;5.57;100.00;97937.28;2605010;28;20042;-87
2023/12/20 01:00:17;;;;;;;3.17;1.85;;;;;;;5.61;100.00;97946.75;2605081;28;20492;-87
2023/12/20 01:01:33;;;;;;;6.35;2.58;;;;;;;5.72;100.00;97950.91;2604777;28;20075;-87
2023/12/20 01:02:51;;;;;;;2.42;2.00;;;;;;;5.52;100.00;97946.91;2594533;28;20917;-87
2023/12/20 01:04:07;;;;;;;4.22;2.08;;;;;;;5.47;100.00;97952.16;2595632;28;20099;-88
2023/12/20 01:05:23;;;;;;;5.03;2.92;;;;;;;5.55;100.00;97956.38;2601802;28;20556;-88
2023/12/20 01:06:39;;;;;;;3.95;2.45;;;;;;;5.47;100.00;97953.88;2597591;28;20857;-88
2023/12/20 01:07:55;;;;;;;5.10;3.30;;;;;;;5.56;100.00;97956.34;2597727;28;20484;-88
2023/12/20 01:09:11;;;;;;;4.57;2.88;;;;;;;5.55;100.00;97943.38;2604296;28;20029;-88
2023/12/20 01:10:28;;;;;;;6.32;3.38;;;;;;;5.65;100.00;97939.75;2607345;28;20029;-89
2023/12/20 01:11:46;;;;;;;5.57;2.83;;;;;;;5.42;100.00;97937.53;2605327;28;20033;-89
2023/12/20 01:13:02;;;;;;;3.47;2.28;;;;;;;5.57;100.00;97933.81;2605883;28;20485;-88
2023/12/20 01:14:18;;;;;;;5.03;2.55;;;;;;;5.49;100.00;97934.81;2604192;28;20033;-89
2023/12/20 01:15:34;;;;;;;6.07;3.38;;;;;;;5.55;100.00;97933.88;2605378;28;20036;-88
2023/12/20 01:16:50;;;;;;;3.20;2.47;;;;;;;5.47;100.00;97927.94;2592527;28;20067;-90
2023/12/20 01:18:06;;;;;;;5.60;3.03;;;;;;;5.55;100.00;97926.06;2588125;28;20025;-89
2023/12/20 01:19:23;;;;;;;7.38;2.85;;;;;;;5.36;100.00;97925.50;2598825;28;20030;-89
2023/12/20 01:20:39;;;;;;;4.28;2.53;;;;;;;5.51;100.00;97922.66;2592137;28;20034;-88
2023/12/20 01:21:55;;;;;;;7.32;3.78;;;;;;;5.67;100.00;97916.38;2598916;28;20412;-90
2023/12/20 01:23:11;;;;;;;4.50;2.70;;;;;;;5.43;100.00;97931.47;2593254;28;20075;-89
2023/12/20 01:24:27;;;;;;;3.28;2.65;;;;;;;5.32;100.00;97926.44;2599813;28;20061;-88
2023/12/20 01:25:43;;;;;;;3.55;2.42;;;;;;;5.27;100.00;97926.50;2602010;28;20029;-90
2023/12/20 01:26:59;;;;;;;5.68;2.47;;;;;;;5.36;100.00;97928.09;2603653;28;20033;-89
2023/12/20 01:28:15;;;;;;;3.13;2.33;;;;;;;5.40;100.00;97908.16;2603540;28;20483;-89
2023/12/20 01:29:31;;;;;;;4.28;2.53;;;;;;;5.44;100.00;97913.25;2603964;28;20059;-88
2023/12/20 01:30:47;;;;;;;3.60;2.22;;;;;;;5.58;100.00;97904.38;2602476;28;20054;-89
2023/12/20 01:32:03;;;;;;;6.32;3.08;;;;;;;5.51;100.00;97908.81;2592342;28;20105;-87
2023/12/20 01:33:19;;;;;;;4.18;2.58;;;;;;;5.58;100.00;97897.47;2589063;28;20178;-92
2023/12/20 01:34:35;;;;;;;4.50;2.15;;;;;;;5.38;100.00;97897.78;2587363;28;20034;-89
2023/12/20 01:35:51;;;;;;;4.53;2.38;;;;;;;5.33;100.00;97908.22;2597353;28;20500;-89
2023/12/20 01:37:07;;;;;;;5.65;2.50;;;;;;;5.30;100.00;97910.00;2603030;28;20025;-89
2023/12/20 01:38:23;;;;;;;5.28;3.15;;;;;;;5.20;100.00;97898.91;2601280;28;20037;-89
2023/12/20 01:39:39;;;;;;;3.72;2.58;;;;;;;5.27;100.00;97910.94;2603939;28;20134;-90
2023/12/20 01:40:55;;;;;;;3.80;2.28;;;;;;;5.31;100.00;97904.81;2605596;28;20156;-90
2023/12/20 01:42:11;;;;;;;3.65;2.42;;;;;;;5.19;100.00;97903.25;2604820;28;20392;-87
2023/12/20 01:43:27;;;;;;;6.47;3.10;;;;;;;5.44;100.00;97905.47;2602118;28;20030;-90
2023/12/20 01:44:43;;;;;;;6.80;3.63;;;;;;;5.47;100.00;97908.03;2603497;28;20029;-89
2023/12/20 01:46:00;;;;;;;4.60;2.58;;;;;;;5.40;100.00;97898.59;2602958;28;20079;-89
2023/12/20 01:47:16;;;;;;;8.25;3.72;;;;;;;5.56;100.00;97893.16;2597738;28;20471;-89
2023/12/20 01:48:32;;;;;;;4.38;2.92;;;;;;;5.51;100.00;97888.91;2599820;28;20026;-89
2023/12/20 01:49:49;;;;;;;3.75;2.30;;;;;;;5.32;100.00;97895.28;2604615;28;20100;-88
2023/12/20 01:51:05;;;;;;;5.43;3.00;;;;;;;5.36;100.00;97886.56;2603222;28;20041;-90
2023/12/20 01:52:21;;;;;;;4.60;2.58;;;;;;;5.34;100.00;97894.38;2603442;28;20033;-89
2023/12/20 01:53:39;;;;;;;3.58;2.72;;;;;;;5.32;100.00;97890.09;2602280;28;20608;-89
2023/12/20 01:55:00;;;;;;;4.85;2.50;;;;;;;5.23;100.00;97889.34;2603534;28;20083;-89
2023/12/20 01:56:17;;;;;;;5.57;3.15;;;;;;;5.39;100.00;97885.66;2589973;28;20036;-89
2023/12/20 01:57:33;;;;;;;3.70;2.47;;;;;;;5.41;100.00;97887.34;2596914;28;20037;-89
2023/12/20 01:58:49;;;;;;;4.30;2.45;;;;;;;5.28;100.00;97883.22;2603248;28;20049;-89
2023/12/20 02:00:06;;;;;;;4.03;2.85;;;;;;;5.36;100.00;97881.38;2592066;28;20050;-90
2023/12/20 02:01:22;;;;;;;3.22;2.05;;;;;;;5.25;100.00;97886.75;2589026;28;20042;-89
2023/12/20 02:02:41;;;;;;;6.53;3.70;;;;;;;5.51;100.00;97883.72;2595283;28;20055;-89
2023/12/20 02:03:57;;;;;;;4.43;3.03;;;;;;;5.40;100.00;97882.19;2604269;28;20106;-89
2023/12/20 02:05:13;;;;;;;3.20;1.92;;;;;;;5.37;100.00;97883.09;2592771;28;20057;-87
2023/12/20 02:06:31;;;;;;;5.13;2.92;;;;;;;5.40;100.00;97885.63;2592981;28;20041;-88
2023/12/20 02:07:47;;;;;;;4.10;2.53;;;;;;;5.41;100.00;97884.75;2596156;28;20096;-88
2023/12/20 02:09:03;;;;;;;5.70;2.63;;;;;;;5.49;100.00;97882.03;2590986;28;20104;-89
2023/12/20 02:10:19;;;;;;;4.43;2.40;;;;;;;5.41;100.00;97886.50;2597363;28;20029;-89
2023/12/20 02:11:36;;;;;;;3.65;2.28;;;;;;;5.30;100.00;97882.31;2604509;28;20139;-88
2023/12/20 02:12:52;;;;;;;5.82;3.00;;;;;;;5.47;100.00;97879.47;2604960;28;20082;-88
2023/12/20 02:14:08;;;;;;;3.47;2.00;;;;;;;5.48;100.00;97881.19;2605008;28;20049;-89
2023/12/20 02:15:24;;;;;;;2.78;2.10;;;;;;;5.25;100.00;97888.47;2591147;28;20104;-88
2023/12/20 02:16:40;;;;;;;2.70;1.92;;;;;;;5.35;100.00;97877.91;2588609;28;20037;-88
2023/12/20 02:17:56;;;;;;;5.72;2.97;;;;;;;5.61;100.00;97880.97;2600282;28;20037;-88
2023/12/20 02:19:15;;;;;;;3.53;2.15;;;;;;;5.52;100.00;97882.00;2603321;28;20114;-88
2023/12/20 02:20:31;;;;;;;4.10;1.92;;;;;;;5.40;100.00;97883.03;2603243;28;20614;-89
2023/12/20 02:21:47;;;;;;;4.38;1.90;;;;;;;5.37;100.00;97877.91;2604925;28;20083;-87
2023/12/20 02:23:03;;;;;;;7.60;3.70;;;;;;;5.75;100.00;97876.41;2593596;28;20029;-88
2023/12/20 02:24:19;;;;;;;7.80;3.35;;;;;;;5.88;100.00;97874.44;2597896;28;20045;-88
2023/12/20 02:25:35;;;;;;;7.32;3.03;;;;;;;5.89;100.00;97876.13;2603675;28;20041;-89
2023/12/20 02:26:51;;;;;;;3.63;2.42;;;;;;;5.55;100.00;97871.53;2604396;28;20033;-87
2023/12/20 02:28:07;;;;;;;4.95;3.13;;;;;;;5.85;100.00;97871.88;2591852;28;20033;-87
2023/12/20 02:29:23;;;;;;;6.85;3.42;;;;;;;5.84;100.00;97869.31;2592594;28;20021;-87
2023/12/20 02:30:39;;;;;;;5.82;3.47;;;;;;;5.73;100.00;97869.50;2584391;28;20037;-88
2023/12/20 02:31:55;;;;;;;4.93;2.80;;;;;;;5.72;100.00;97870.41;2596685;28;20408;-87
2023/12/20 02:33:13;;;;;;;5.65;2.47;;;;;;;5.68;100.00;97867.00;2592439;28;20038;-87
2023/12/20 02:34:29;;;;;;;1.85;1.45;;;;;;;5.54;100.00;97868.97;2589014;28;20049;-88
2023/12/20 02:35:45;;;;;;;2.28;1.67;;;;;;;5.53;100.00;97864.66;2599102;28;20037;-87
2023/12/20 02:37:01;;;;;;;3.58;2.00;;;;;;;5.55;100.00;97866.34;2601914;28;20034;-87
2023/12/20 02:38:17;;;;;;;2.33;1.77;;;;;;;5.45;100.00;97862.19;2591146;28;20037;-87
2023/12/20 02:39:33;;;;;;;5.00;2.40;;;;;;;5.70;100.00;97865.22;2597575;28;20598;-88
2023/12/20 02:40:49;;;;;;;3.65;2.25;;;;;;;5.60;100.00;97866.28;2603387;28;20036;-87
2023/12/20 02:42:05;;;;;;;2.58;1.70;;;;;;;5.45;100.00;97868.25;2602665;28;20033;-87
2023/12/20 02:43:21;;;;;;;3.08;2.53;;;;;;;5.29;100.00;97861.56;2601936;28;20084;-86
2023/12/20 02:44:37;;;;;;;2.65;2.15;;;;;;;5.34;100.00;97860.63;2602167;28;20048;-87
2023/12/20 02:45:52;;;;;;;3.85;2.67;;;;;;;5.39;100.00;97857.97;2603197;28;20044;-87
2023/12/20 02:47:09;;;;;;;2.65;1.60;;;;;;;5.44;100.00;97863.91;2602700;28;20045;-87
2023/12/20 02:48:25;;;;;;;4.00;2.25;;;;;;;5.43;100.00;97864.81;2602534;28;20486;-87
2023/12/20 02:49:40;;;;;;;3.63;2.47;;;;;;;5.43;100.00;97863.97;2601107;28;20033;-87
2023/12/20 02:50:56;;;;;;;3.17;2.35;;;;;;;5.27;100.00;97864.22;2601673;28;20034;-87
2023/12/20 02:52:12;;;;;;;3.13;2.38;;;;;;;5.32;100.00;97856.34;2591338;28;20038;-86
2023/12/20 02:53:28;;;;;;;2.67;1.95;;;;;;;5.34;100.00;97854.59;2592703;28;20401;-88
2023/12/20 02:54:44;;;;;;;3.72;2.60;;;;;;;5.15;100.00;97856.63;2597907;28;20041;-87
2023/12/20 02:56:00;;;;;;;2.72;2.40;;;;;;;5.43;100.00;97857.00;2593417;28;20046;-87
2023/12/20 02:57:16;;;;;;;2.55;1.90;;;;;;;5.42;100.00;97855.31;2595609;28;20132;-87
2023/12/20 02:58:32;;;;;;;3.22;2.15;;;;;;;5.23;100.00;97845.22;2583002;28;20046;-88
2023/12/20 02:59:48;;;;;;;1.90;1.60;;;;;;;5.25;100.00;97846.94;2591752;28;20041;-89
2023/12/20 03:01:04;;;;;;;3.83;2.10;;;;;;;5.60;100.00;97854.13;2601976;28;20060;-87
2023/12/20 03:02:20;;;;;;;3.03;2.45;;;;;;;5.15;100.00;97860.06;2604010;28;20080;-86
2023/12/20 03:03:36;;;;;;;5.22;2.67;;;;;;;5.32;100.00;97851.16;2581302;28;20684;-86
2023/12/20 03:04:52;;;;;;;3.10;2.47;;;;;;;5.12;100.00;97851.47;2588288;28;20053;-87
2023/12/20 03:06:08;;;;;;;3.40;1.73;;;;;;;5.38;100.00;97853.66;2601748;28;20038;-86
2023/12/20 03:07:24;;;;;;;5.07;2.45;;;;;;;5.50;100.00;97853.44;2603831;28;20092;-87
2023/12/20 03:08:40;;;;;;;4.93;1.90;;;;;;;5.24;100.00;97856.47;2601351;28;20484;-86
2023/12/20 03:09:58;;;;;;;3.38;2.13;;;;;;;5.35;100.00;97849.34;2601581;28;20037;-86
2023/12/20 03:11:14;;;;;;;3.05;1.90;;;;;;;5.27;100.00;97864.22;2601702;28;20079;-87
2023/12/20 03:12:30;;;;;;;2.22;1.40;;;;;;;5.28;100.00;97857.25;2604280;28;20042;-86
2023/12/20 03:13:46;;;;;;;3.13;2.33;;;;;;;5.17;100.00;97858.31;2590030;28;20045;-86
2023/12/20 03:15:02;;;;;;;3.13;2.33;;;;;;;5.23;100.00;97844.34;2588499;28;20413;-87
2023/12/20 03:16:18;;;;;;;3.50;2.28;;;;;;;5.09;100.00;97850.63;2598468;28;20033;-86
2023/12/20 03:17:34;;;;;;;3.17;1.80;;;;;;;5.15;100.00;97852.28;2600935;28;20032;-86
2023/12/20 03:18:50;;;;;;;3.03;1.50;;;;;;;5.16;100.00;97856.56;2591466;28;20034;-87
2023/12/20 03:20:07;;;;;;;5.00;2.83;;;;;;;4.98;100.00;97849.94;2597151;28;20041;-87
2023/12/20 03:21:23;;;;;;;5.75;2.25;;;;;;;5.18;100.00;97856.56;2601444;28;20029;-86
2023/12/20 03:22:39;;;;;;;3.00;1.90;;;;;;;5.23;100.00;97850.41;2601804;28;20033;-86
2023/12/20 03:23:55;;;;;;;2.67;2.22;;;;;;;5.03;100.00;97842.06;2593106;28;20084;-86
2023/12/20 03:25:10;;;;;;;4.13;2.63;;;;;;;4.98;100.00;97849.09;2596275;28;20087;-86
2023/12/20 03:26:26;;;;;;;3.10;2.63;;;;;;;4.97;100.00;97837.88;2601764;28;20057;-87
2023/12/20 03:27:42;;;;;;;2.83;2.00;;;;;;;5.15;100.00;97848.84;2601399;28;20064;-86
2023/12/20 03:28:58;;;;;;;3.42;1.80;;;;;;;5.19;100.00;97853.09;2602335;28;20036;-86
2023/12/20 03:30:14;;;;;;;2.67;2.00;;;;;;;5.14;100.00;97844.53;2592242;28;20085;-86
2023/12/20 03:31:30;;;;;;;2.88;1.67;;;;;;;5.11;100.00;97842.81;2597311;28;20037;-86
2023/12/20 03:32:47;;;;;;;1.50;1.33;;;;;;;5.13;100.00;97848.00;2593117;28;20030;-87
2023/12/20 03:34:03;;;;;;;3.53;2.05;;;;;;;4.98;100.00;97842.16;2599001;28;20100;-86
2023/12/20 03:35:19;;;;;;;3.78;1.92;;;;;;;5.03;100.00;97836.88;2593048;28;20025;-86
2023/12/20 03:36:35;;;;;;;2.45;1.75;;;;;;;5.06;100.00;97832.50;2597722;28;20036;-86
2023/12/20 03:37:50;;;;;;;1.85;1.60;;;;;;;5.00;100.00;97842.13;2606332;28;20032;-86
2023/12/20 03:39:06;;;;;;;1.38;1.25;;;;;;;5.14;100.00;97850.56;2594807;28;20100;-87
2023/12/20 03:40:22;;;;;;;2.20;1.20;;;;;;;5.09;100.00;97837.66;2596198;28;20056;-86
2023/12/20 03:41:38;;;;;;;1.88;1.58;;;;;;;5.04;100.00;97838.63;2602534;28;20263;-87
2023/12/20 03:42:54;;;;;;;2.38;1.63;;;;;;;4.87;100.00;97844.91;2603913;28;20464;-87
2023/12/20 03:44:10;;;;;;;1.98;1.42;;;;;;;5.04;100.00;97844.66;2602719;28;20088;-86
2023/12/20 03:45:26;;;;;;;2.13;1.40;;;;;;;5.03;100.00;97842.94;2606299;28;20476;-87
2023/12/20 03:46:42;;;;;;;2.58;1.42;;;;;;;5.06;100.00;97844.66;2593767;28;20037;-86
2023/12/20 03:47:58;;;;;;;2.42;1.30;;;;;;;5.12;100.00;97838.50;2597132;28;20242;-86
2023/12/20 03:49:14;;;;;;;2.33;1.73;;;;;;;5.01;100.00;97841.25;2594978;28;20092;-86
2023/12/20 03:50:30;;;;;;;1.30;1.02;;;;;;;5.04;100.00;97843.81;2598385;28;20556;-87
2023/12/20 03:51:46;;;;;;;3.72;1.63;;;;;;;5.07;100.00;97843.75;2603961;28;20037;-87
2023/12/20 03:53:02;;;;;;;3.67;1.73;;;;;;;5.12;100.00;97841.09;2593304;28;20029;-86
2023/12/20 03:54:18;;;;;;;1.77;1.45;;;;;;;4.97;100.00;97845.66;2598798;28;20032;-87
2023/12/20 03:55:34;;;;;;;2.15;1.40;;;;;;;4.89;100.00;97835.38;2594542;28;20524;-86
2023/12/20 03:56:50;;;;;;;2.22;1.45;;;;;;;5.08;100.00;97835.94;2597596;28;20075;-86
2023/12/20 03:58:06;;;;;;;3.03;1.98;;;;;;;5.20;100.00;97834.03;2605687;28;20595;-88
2023/12/20 03:59:22;;;;;;;1.73;1.20;;;;;;;5.17;100.00;97831.50;2604444;28;20033;-86
2023/12/20 04:00:38;;;;;;;2.08;1.35;;;;;;;5.04;100.00;97833.44;2602909;28;20060;-86
2023/12/20 04:01:54;;;;;;;4.68;1.83;;;;;;;5.04;100.00;97838.63;2594906;28;20060;-87
2023/12/20 04:03:12;;;;;;;4.38;2.50;;;;;;;5.21;100.00;97834.03;2598877;28;20032;-86
2023/12/20 04:04:28;;;;;;;2.40;1.80;;;;;;;4.88;100.00;97838.84;2604807;28;20370;-86
2023/12/20 04:05:44;;;;;;;2.42;1.75;;;;;;;5.04;100.00;97841.22;2603658;28;20255;-88
2023/12/20 04:07:00;;;;;;;2.47;1.58;;;;;;;4.88;100.00;97845.78;2591958;28;20044;-87
2023/12/20 04:08:16;;;;;;;2.85;1.30;;;;;;;4.93;100.00;97842.25;2600735;28;20033;-87
2023/12/20 04:09:32;;;;;;;3.90;1.85;;;;;;;4.83;100.00;97845.84;2603891;28;20036;-87
2023/12/20 04:10:48;;;;;;;1.17;1.02;;;;;;;4.87;100.00;97841.47;2602967;28;20030;-87
2023/12/20 04:12:05;;;;;;;2.83;1.48;;;;;;;4.95;100.00;97850.84;2602181;28;20082;-87
2023/12/20 04:13:21;;;;;;;3.33;2.20;;;;;;;5.35;100.00;97846.75;2598428;28;20055;-87
2023/12/20 04:14:37;;;;;;;1.92;1.63;;;;;;;5.07;100.00;97846.34;2600309;28;20488;-87
2023/12/20 04:15:53;;;;;;;1.95;1.35;;;;;;;5.06;100.00;97848.09;2603500;28;20041;-87
2023/12/20 04:17:09;;;;;;;4.20;1.70;;;;;;;4.80;100.00;97848.47;2602866;28;20641;-87
2023/12/20 04:18:25;;;;;;;3.75;2.60;;;;;;;4.86;100.00;97850.97;2602087;28;20096;-88
2023/12/20 04:19:41;;;;;;;3.22;2.10;;;;;;;4.98;100.00;97855.16;2601778;28;20069;-87
2023/12/20 04:20:57;;;;;;;3.47;1.83;;;;;;;4.98;100.00;97849.09;2603379;28;20518;-87
2023/12/20 04:22:13;;;;;;;2.33;1.77;;;;;;;5.00;100.00;97855.97;2593196;28;20092;-88
2023/12/20 04:23:29;;;;;;;6.05;2.63;;;;;;;5.28;100.00;97854.66;2586892;28;20099;-87
2023/12/20 04:24:45;;;;;;;2.13;1.60;;;;;;;4.95;100.00;97861.22;2597728;28;20471;-88
2023/12/20 04:26:01;;;;;;;2.08;1.70;;;;;;;4.91;100.00;97854.38;2592745;28;20057;-87
2023/12/20 04:27:17;;;;;;;2.20;1.50;;;;;;;4.81;100.00;97857.97;2598380;28;20037;-87
2023/12/20 04:28:33;;;;;;;3.55;2.45;;;;;;;4.74;100.00;97851.16;2595011;28;20088;-87
2023/12/20 04:29:49;;;;;;;4.03;1.88;;;;;;;4.88;100.00;97861.34;2597031;28;20069;-87
2023/12/20 04:31:05;;;;;;;2.65;2.15;;;;;;;4.90;100.00;97856.97;2603033;28;20041;-87
2023/12/20 04:32:20;;;;;;;4.63;2.90;;;;;;;4.75;100.00;97861.50;2593773;28;20832;-87
2023/12/20 04:33:36;;;;;;;3.83;3.05;;;;;;;4.70;100.00;97867.63;2595234;28;20115;-87
2023/12/20 04:34:52;;;;;;;4.15;2.75;;;;;;;4.68;100.00;97864.22;2605139;28;20602;-87
2023/12/20 04:36:09;;;;;;;3.25;2.22;;;;;;;4.83;100.00;97864.00;2591190;28;20129;-87
2023/12/20 04:37:25;;;;;;;2.38;1.83;;;;;;;4.90;100.00;97862.16;2596506;28;20037;-87
2023/12/20 04:38:41;;;;;;;1.92;1.35;;;;;;;4.72;100.00;97858.97;2598332;28;20033;-86
2023/12/20 04:39:57;;;;;;;5.45;2.78;;;;;;;4.73;100.00;97862.41;2599966;28;20037;-86
2023/12/20 04:41:15;;;;;;;2.58;1.80;;;;;;;4.70;100.00;97860.72;2603330;28;20720;-87
2023/12/20 04:42:31;;;;;;;3.35;1.95;;;;;;;4.66;100.00;97862.50;2605520;28;20041;-86
2023/12/20 04:43:47;;;;;;;3.45;2.55;;;;;;;4.61;100.00;97860.84;2594109;28;20435;-86
2023/12/20 04:45:04;;;;;;;2.55;2.05;;;;;;;4.72;100.00;97847.72;2597579;28;20034;-86
2023/12/20 04:46:20;;;;;;;2.85;1.90;;;;;;;4.84;100.00;97860.50;2603598;28;20041;-86
2023/12/20 04:47:36;;;;;;;2.67;2.22;;;;;;;4.77;100.00;97859.75;2601887;28;20052;-87
2023/12/20 04:48:52;;;;;;;4.03;1.90;;;;;;;4.65;100.00;97862.50;2601811;28;20370;-86
2023/12/20 04:50:09;;;;;;;3.72;2.08;;;;;;;4.72;100.00;97863.28;2591892;28;20121;-86
2023/12/20 04:51:25;;;;;;;4.60;2.67;;;;;;;4.88;100.00;97867.38;2598791;28;20075;-86
2023/12/20 04:52:42;;;;;;;5.03;2.80;;;;;;;4.84;100.00;97864.88;2603547;28;20025;-87
2023/12/20 04:53:58;;;;;;;1.88;1.52;;;;;;;4.77;100.00;97862.34;2603755;28;20507;-87
2023/12/20 04:55:14;;;;;;;4.78;2.20;;;;;;;4.59;100.00;97865.19;2604225;28;20084;-87
2023/12/20 04:56:29;;;;;;;2.28;1.85;;;;;;;4.66;100.00;97866.81;2603219;28;20048;-87
2023/12/20 04:57:45;;;;;;;4.05;2.13;;;;;;;4.73;100.00;97854.63;2604926;28;20033;-87
2023/12/20 04:59:01;;;;;;;2.97;1.88;;;;;;;4.71;100.00;97858.97;2605679;28;20045;-87
2023/12/20 05:00:18;;;;;;;2.97;2.00;;;;;;;4.79;100.00;97860.56;2604761;28;20041;-87
2023/12/20 05:01:33;;;;;;;3.47;2.28;;;;;;;4.71;100.00;97858.97;2590775;28;20050;-87
2023/12/20 05:02:49;;;;;;;5.15;2.58;;;;;;;4.80;100.00;97862.28;2596624;28;20479;-88
2023/12/20 05:04:05;;;;;;;2.97;1.80;;;;;;;4.65;100.00;97860.78;2603280;28;20037;-87
2023/12/20 05:05:21;;;;;;;3.10;1.95;;;;;;;4.74;100.00;97858.94;2604276;28;20458;-88
2023/12/20 05:06:37;;;;;;;2.70;1.75;;;;;;;4.58;100.00;97866.06;2594072;28;20157;-87
2023/12/20 05:07:53;;;;;;;3.17;1.90;;;;;;;4.49;100.00;97859.28;2595998;28;20069;-87
2023/12/20 05:09:09;;;;;;;2.03;1.45;;;;;;;4.50;100.00;97871.34;2602647;28;20071;-86
2023/12/20 05:10:26;;;;;;;2.90;2.17;;;;;;;4.68;100.00;97866.81;2603310;28;20503;-87
2023/12/20 05:11:42;;;;;;;2.33;1.60;;;;;;;4.70;100.00;97867.63;2602104;28;20039;-86
2023/12/20 05:12:58;;;;;;;1.85;1.13;;;;;;;4.57;100.00;97862.59;2602772;28;20037;-87
2023/12/20 05:14:14;;;;;;;1.90;1.50;;;;;;;4.77;100.00;97866.69;2602239;28;20577;-87
2023/12/20 05:15:30;;;;;;;2.70;1.60;;;;;;;4.76;100.00;97864.97;2592041;28;20131;-87
2023/12/20 05:16:46;;;;;;;2.38;1.70;;;;;;;4.62;100.00;97868.59;2595214;28;20037;-87
2023/12/20 05:18:02;;;;;;;5.10;2.20;;;;;;;4.91;100.00;97864.75;2593279;28;20030;-88
2023/12/20 05:19:18;;;;;;;3.70;2.28;;;;;;;4.80;100.00;97877.00;2598622;28;20075;-87
2023/12/20 05:20:34;;;;;;;1.98;1.60;;;;;;;4.71;100.00;97870.22;2591383;28;20042;-87
2023/12/20 05:21:50;;;;;;;2.17;1.70;;;;;;;4.74;100.00;97869.28;2596525;28;20048;-87
2023/12/20 05:23:06;;;;;;;2.83;1.75;;;;;;;4.70;100.00;97870.22;2603178;28;20540;-86
2023/12/20 05:24:22;;;;;;;3.35;1.88;;;;;;;4.74;100.00;97880.53;2601970;28;20102;-87
2023/12/20 05:25:38;;;;;;;2.03;1.60;;;;;;;4.58;100.00;97879.88;2605777;28;20021;-87
2023/12/20 05:26:54;;;;;;;2.38;0.90;;;;;;;4.49;100.00;97877.41;2603157;28;20037;-87
2023/12/20 05:28:10;;;;;;;2.08;1.48;;;;;;;4.83;100.00;97876.97;2606659;28;20035;-87
2023/12/20 05:29:26;;;;;;;3.67;1.77;;;;;;;4.62;100.00;97878.97;2615356;28;20415;-87
2023/12/20 05:30:42;;;;;;;2.35;1.20;;;;;;;4.69;100.00;97878.88;2614485;28;20558;-86
2023/12/20 05:31:58;;;;;;;3.28;1.63;;;;;;;4.53;100.00;97879.09;2613568;28;20040;-87
2023/12/20 05:33:14;;;;;;;1.70;1.35;;;;;;;4.63;100.00;97880.69;2607957;28;20028;-87
2023/12/20 05:34:31;;;;;;;4.00;1.70;;;;;;;4.74;100.00;97883.13;2609700;28;20615;-86
2023/12/20 05:35:47;;;;;;;1.60;1.10;;;;;;;4.65;100.00;97881.53;2616343;28;20043;-87
2023/12/20 05:37:03;;;;;;;4.13;2.33;;;;;;;4.68;100.00;97883.22;2603973;28;20112;-86
2023/12/20 05:38:19;;;;;;;3.38;2.35;;;;;;;4.95;100.00;97875.91;2608320;28;20024;-88
2023/12/20 05:39:35;;;;;;;2.15;1.55;;;;;;;4.67;100.00;97878.91;2615461;28;20067;-87
2023/12/20 05:40:50;;;;;;;1.75;1.25;;;;;;;4.70;100.00;97881.47;2614721;28;20610;-87
2023/12/20 05:42:06;;;;;;;3.83;2.55;;;;;;;4.96;100.00;97872.47;2607573;28;20064;-87
2023/12/20 05:43:22;;;;;;;3.78;2.20;;;;;;;4.97;100.00;97875.91;2600243;28;20745;-87
2023/12/20 05:44:38;;;;;;;3.88;1.80;;;;;;;4.79;100.00;97875.28;2608131;28;20044;-87
2023/12/20 05:45:54;;;;;;;2.38;1.83;;;;;;;4.89;100.00;97876.03;2602800;28;20050;-87
2023/12/20 05:47:10;;;;;;;1.02;0.93;;;;;;;4.71;100.00;97884.91;2599915;28;20087;-88
2023/12/20 05:48:27;;;;;;;1.50;1.20;;;;;;;4.56;100.00;97879.03;2609020;28;20411;-88
2023/12/20 05:49:44;;;;;;;1.58;1.38;;;;;;;4.48;100.00;97880.91;2613343;28;20119;-87
2023/12/20 05:51:00;;;;;;;2.63;1.63;;;;;;;4.81;100.00;97878.72;2612928;28;20021;-88
2023/12/20 05:52:16;;;;;;;2.30;1.60;;;;;;;4.90;100.00;97877.72;2612173;28;20079;-88
2023/12/20 05:53:32;;;;;;;2.17;1.45;;;;;;;4.78;100.00;97887.38;2602753;28;20512;-89
2023/12/20 05:54:48;;;;;;;2.38;1.75;;;;;;;4.83;100.00;97886.50;2600338;28;20045;-86
2023/12/20 05:56:04;;;;;;;3.10;1.73;;;;;;;4.94;100.00;97884.59;2601568;28;20543;-88
2023/12/20 05:57:20;;;;;;;2.15;1.58;;;;;;;4.86;100.00;97892.47;2609722;28;20016;-88
2023/12/20 05:58:36;;;;;;;2.22;1.30;;;;;;;4.57;100.00;97880.75;2612590;28;20036;-89